Time;durP1;ratioP1;P1;durP2;ratioP2;P2;SDS_P1;SDS_P2;PMS_P1;PMS_P2;Temp;Humidity;BMP_temperature;BMP_pressure;BME280_temperature;BME280_humidity;BME280_pressure;Samples;Min_cycle;Max_cycle;Signal;HPM_P1;HPM_P2
2023/12/12 00:00:43;;;;;;;0.10;0.08;;;5.10;99.90;;;;;;5021751;28;20559;-72
2023/12/12 00:03:08;;;;;;;0.45;0.22;;;5.00;99.90;;;;;;5023265;28;20089;-72
2023/12/12 00:05:34;;;;;;;0.25;0.10;;;4.90;99.90;;;;;;5019758;28;20474;-72
2023/12/12 00:08:00;;;;;;;3.40;0.65;;;5.00;99.90;;;;;;5003446;28;20044;-72
2023/12/12 00:10:25;;;;;;;0.88;0.30;;;5.00;99.90;;;;;;5019580;28;20077;-72
2023/12/12 00:12:52;;;;;;;1.05;0.20;;;4.80;99.90;;;;;;5021874;28;20068;-72
2023/12/12 00:15:18;;;;;;;1.50;0.38;;;4.80;99.90;;;;;;5022712;28;20045;-72
2023/12/12 00:17:43;;;;;;;0.20;0.08;;;4.80;99.90;;;;;;5022381;28;20037;-72
2023/12/12 00:20:10;;;;;;;0.20;0.03;;;4.80;99.90;;;;;;5022201;28;20071;-72
2023/12/12 00:22:36;;;;;;;2.83;0.98;;;4.80;99.90;;;;;;5011607;28;20069;-72
2023/12/12 00:25:03;;;;;;;1.35;0.20;;;4.80;99.90;;;;;;5019484;28;20133;-72
2023/12/12 00:27:29;;;;;;;0.10;0.10;;;4.90;99.90;;;;;;5020758;28;20128;-72
2023/12/12 00:29:55;;;;;;;0.05;0.00;;;4.90;99.90;;;;;;5020977;28;21051;-72
2023/12/12 00:32:21;;;;;;;0.40;0.20;;;4.90;99.90;;;;;;5023963;28;20045;-72
2023/12/12 00:34:46;;;;;;;0.77;0.08;;;4.90;99.90;;;;;;5028745;28;20025;-71
2023/12/12 00:37:12;;;;;;;0.57;0.20;;;4.90;99.90;;;;;;5007375;28;20389;-71
2023/12/12 00:39:41;;;;;;;0.22;0.10;;;4.90;99.90;;;;;;5028648;28;20044;-71
2023/12/12 00:42:07;;;;;;;0.22;0.20;;;4.80;99.90;;;;;;5020497;28;20042;-72
2023/12/12 00:44:35;;;;;;;3.88;0.50;;;4.80;99.90;;;;;;5028125;28;20064;-72
2023/12/12 00:47:01;;;;;;;0.20;0.20;;;4.70;99.90;;;;;;5018470;28;20052;-72
2023/12/12 00:49:27;;;;;;;0.00;0.00;;;4.70;99.90;;;;;;5022781;28;20354;-72
2023/12/12 00:51:53;;;;;;;0.50;0.20;;;4.70;99.90;;;;;;5024925;28;20155;-72
2023/12/12 00:54:19;;;;;;;0.47;0.47;;;4.60;99.90;;;;;;5024370;28;20037;-72
2023/12/12 00:56:46;;;;;;;0.00;0.00;;;4.50;99.90;;;;;;5029919;28;20536;-71
2023/12/12 00:59:15;;;;;;;0.10;0.00;;;4.60;99.90;;;;;;5027585;28;20682;-72
2023/12/12 01:01:41;;;;;;;0.50;0.40;;;4.50;99.90;;;;;;5026861;28;20397;-72
2023/12/12 01:04:08;;;;;;;0.80;0.20;;;4.50;99.90;;;;;;5026628;28;20040;-72
2023/12/12 01:06:33;;;;;;;0.32;0.13;;;4.40;99.90;;;;;;5024796;28;20094;-71
2023/12/12 01:08:59;;;;;;;0.30;0.22;;;4.40;99.90;;;;;;5023324;28;20044;-72
2023/12/12 01:11:25;;;;;;;1.85;0.32;;;4.40;99.90;;;;;;5025327;28;20045;-71
2023/12/12 01:13:51;;;;;;;0.20;0.10;;;4.40;99.90;;;;;;5026187;28;20574;-72
2023/12/12 01:16:16;;;;;;;5.00;0.35;;;4.30;99.90;;;;;;5021120;28;20397;-71
2023/12/12 01:18:42;;;;;;;0.03;0.00;;;4.30;99.90;;;;;;5022233;28;20044;-72
2023/12/12 01:21:08;;;;;;;0.00;0.00;;;4.20;99.90;;;;;;5023175;28;20033;-71
2023/12/12 01:23:53;;;;;;;0.50;0.10;;;4.30;99.90;;;;;;5024858;28;20033;-72
2023/12/12 01:26:22;;;;;;;0.00;0.00;;;4.10;99.90;;;;;;5041289;28;20095;-71
2023/12/12 01:28:48;;;;;;;1.80;0.52;;;4.10;99.90;;;;;;5026150;28;20100;-71
2023/12/12 01:31:15;;;;;;;1.65;0.35;;;4.00;99.90;;;;;;5025697;28;20481;-72
2023/12/12 01:33:41;;;;;;;0.40;0.00;;;4.00;99.90;;;;;;5022045;28;20040;-72
2023/12/12 01:36:07;;;;;;;0.35;0.05;;;3.90;99.90;;;;;;5010467;28;20049;-71
2023/12/12 01:38:33;;;;;;;0.10;0.10;;;3.90;99.90;;;;;;5029026;28;20044;-72
2023/12/12 01:40:59;;;;;;;0.28;0.13;;;3.80;99.90;;;;;;5022059;28;20474;-71
2023/12/12 01:43:27;;;;;;;0.00;0.00;;;3.70;99.90;;;;;;5021003;28;20527;-71
2023/12/12 01:45:55;;;;;;;0.00;0.00;;;3.80;99.90;;;;;;5009433;28;20498;-71
2023/12/12 01:48:22;;;;;;;0.10;0.10;;;3.60;99.90;;;;;;5010438;28;20080;-71
2023/12/12 01:50:49;;;;;;;0.50;0.10;;;3.60;99.90;;;;;;5023550;28;20508;-71
2023/12/12 01:53:20;;;;;;;2.75;0.35;;;3.60;99.90;;;;;;5027111;28;20091;-71
2023/12/12 01:55:48;;;;;;;0.08;0.08;;;3.60;99.90;;;;;;5019230;28;20368;-71
2023/12/12 01:58:14;;;;;;;0.00;0.00;;;3.60;99.90;;;;;;5029492;28;20040;-71
2023/12/12 02:00:40;;;;;;;0.52;0.10;;;3.50;99.90;;;;;;5029801;28;20124;-71
2023/12/12 02:03:06;;;;;;;0.20;0.20;;;3.50;99.90;;;;;;5025011;28;20121;-71
2023/12/12 02:05:36;;;;;;;0.38;0.10;;;3.40;99.90;;;;;;5018868;28;20084;-71
2023/12/12 02:08:05;;;;;;;0.15;0.05;;;3.40;99.90;;;;;;5025285;28;20576;-72
2023/12/12 02:10:31;;;;;;;0.20;0.10;;;3.40;99.90;;;;;;5021028;28;20037;-72
2023/12/12 02:12:57;;;;;;;0.40;0.25;;;3.30;99.90;;;;;;5018142;28;20102;-72
2023/12/12 02:15:23;;;;;;;0.13;0.03;;;3.30;99.90;;;;;;5021021;28;20036;-72
2023/12/12 02:17:49;;;;;;;0.30;0.10;;;3.30;99.90;;;;;;5026183;28;20056;-72
2023/12/12 02:20:15;;;;;;;1.42;0.20;;;3.30;99.90;;;;;;5014222;28;20044;-72
2023/12/12 02:22:42;;;;;;;0.15;0.15;;;3.30;99.90;;;;;;5027611;28;20209;-71
2023/12/12 02:25:08;;;;;;;0.80;0.25;;;3.40;99.90;;;;;;5022032;28;20112;-71
2023/12/12 02:27:34;;;;;;;0.00;0.00;;;3.50;99.90;;;;;;5021786;28;20051;-72
2023/12/12 02:30:00;;;;;;;3.17;0.52;;;3.50;99.90;;;;;;5020691;28;20059;-72
2023/12/12 02:32:29;;;;;;;6.53;0.50;;;3.50;99.90;;;;;;5028242;28;20041;-72
2023/12/12 02:34:54;;;;;;;0.32;0.20;;;3.50;99.90;;;;;;5026691;28;20582;-72
2023/12/12 02:37:21;;;;;;;5.00;0.55;;;3.60;99.90;;;;;;5009780;28;20065;-72
2023/12/12 02:39:46;;;;;;;0.03;0.03;;;3.60;99.90;;;;;;5028949;28;20042;-72
2023/12/12 02:42:12;;;;;;;0.60;0.20;;;3.50;99.90;;;;;;5021855;28;20041;-72
2023/12/12 02:44:38;;;;;;;0.85;0.50;;;3.50;99.90;;;;;;5022460;28;20051;-72
2023/12/12 02:47:03;;;;;;;0.57;0.30;;;3.50;99.90;;;;;;5021608;28;20075;-72
2023/12/12 02:49:29;;;;;;;0.00;0.00;;;3.50;99.90;;;;;;5019195;28;20080;-72
2023/12/12 02:51:55;;;;;;;4.90;0.30;;;3.50;99.90;;;;;;5028006;28;20074;-72
2023/12/12 02:54:20;;;;;;;0.80;0.40;;;3.40;99.90;;;;;;5021188;28;20048;-72
2023/12/12 02:56:46;;;;;;;1.83;0.75;;;3.40;99.90;;;;;;5022245;28;20393;-72
2023/12/12 02:59:12;;;;;;;0.38;0.15;;;3.40;99.90;;;;;;5026128;28;20469;-72
2023/12/12 03:01:39;;;;;;;1.70;0.40;;;3.40;99.90;;;;;;5022966;28;20080;-72
2023/12/12 03:04:04;;;;;;;1.45;0.50;;;3.40;99.90;;;;;;5023291;28;20497;-72
2023/12/12 03:06:30;;;;;;;1.00;0.40;;;3.30;99.90;;;;;;5020524;28;20551;-72
2023/12/12 03:08:56;;;;;;;0.47;0.32;;;3.30;99.90;;;;;;5022710;28;20041;-72
2023/12/12 03:11:21;;;;;;;0.68;0.57;;;3.30;99.90;;;;;;5017357;28;20049;-72
2023/12/12 03:13:47;;;;;;;0.47;0.40;;;3.30;99.90;;;;;;5025479;28;20030;-72
2023/12/12 03:16:13;;;;;;;3.30;0.50;;;3.20;99.90;;;;;;5020682;28;20041;-72
2023/12/12 03:18:38;;;;;;;0.50;0.38;;;3.40;99.90;;;;;;5024420;28;20040;-72
2023/12/12 03:21:04;;;;;;;0.20;0.15;;;3.30;99.90;;;;;;5008331;28;20041;-72
2023/12/12 03:23:30;;;;;;;0.90;0.50;;;3.30;99.90;;;;;;5020911;28;20493;-72
2023/12/12 03:25:56;;;;;;;0.55;0.32;;;3.40;99.90;;;;;;5018438;28;20064;-72
2023/12/12 03:28:21;;;;;;;1.45;0.90;;;3.40;99.90;;;;;;5018938;28;20040;-72
2023/12/12 03:30:47;;;;;;;7.80;0.95;;;3.40;99.90;;;;;;5017624;28;20064;-72
2023/12/12 03:33:13;;;;;;;0.60;0.57;;;3.40;99.90;;;;;;5020394;28;20409;-72
2023/12/12 03:35:38;;;;;;;1.45;0.52;;;3.40;99.90;;;;;;5026296;28;20045;-72
2023/12/12 03:38:04;;;;;;;1.08;0.63;;;3.30;99.90;;;;;;5016981;28;20919;-72
2023/12/12 03:40:30;;;;;;;0.55;0.40;;;3.40;99.90;;;;;;5023542;28;20098;-72
2023/12/12 03:42:55;;;;;;;1.17;0.70;;;3.40;99.90;;;;;;5021491;28;20125;-72
2023/12/12 03:45:21;;;;;;;3.20;1.20;;;3.40;99.90;;;;;;5011320;28;20528;-72
2023/12/12 03:47:47;;;;;;;0.98;0.43;;;3.40;99.90;;;;;;5015962;28;20513;-72
2023/12/12 03:50:13;;;;;;;0.88;0.60;;;3.30;99.90;;;;;;5023247;28;20551;-72
2023/12/12 03:52:39;;;;;;;1.83;0.82;;;3.40;99.90;;;;;;5018398;28;20065;-72
2023/12/12 03:55:08;;;;;;;0.63;0.63;;;3.30;99.90;;;;;;5021956;28;20057;-72
2023/12/12 03:57:34;;;;;;;2.28;0.52;;;3.40;99.90;;;;;;5020153;28;20529;-72
2023/12/12 04:00:00;;;;;;;0.85;0.43;;;3.40;99.90;;;;;;5022040;28;20058;-72
2023/12/12 04:02:26;;;;;;;1.13;0.68;;;3.30;99.90;;;;;;5004348;28;20484;-72
2023/12/12 04:04:51;;;;;;;1.73;0.70;;;3.30;99.90;;;;;;5007666;28;20029;-72
2023/12/12 04:07:18;;;;;;;0.82;0.50;;;3.30;99.90;;;;;;5019286;28;20424;-72
2023/12/12 04:09:44;;;;;;;3.72;0.55;;;3.30;99.90;;;;;;5022770;28;20052;-72
2023/12/12 04:12:10;;;;;;;1.25;0.73;;;3.30;99.90;;;;;;5021227;28;20064;-72
2023/12/12 04:14:36;;;;;;;1.60;0.90;;;3.30;99.90;;;;;;5017440;28;20033;-72
2023/12/12 04:17:03;;;;;;;1.13;0.75;;;3.30;99.90;;;;;;5019751;28;20119;-72
2023/12/12 04:19:29;;;;;;;3.75;1.13;;;3.40;99.90;;;;;;5023737;28;20128;-72
2023/12/12 04:21:54;;;;;;;1.10;0.60;;;3.40;99.90;;;;;;5020628;28;20357;-73
2023/12/12 04:24:20;;;;;;;0.70;0.55;;;3.50;99.90;;;;;;5021235;28;20049;-73
2023/12/12 04:26:46;;;;;;;2.55;0.88;;;3.50;99.90;;;;;;5025994;28;20045;-73
2023/12/12 04:29:12;;;;;;;1.50;0.88;;;3.70;99.90;;;;;;5021771;28;20449;-73
2023/12/12 04:31:38;;;;;;;11.55;0.85;;;3.70;99.90;;;;;;5019526;28;20598;-73
2023/12/12 04:34:03;;;;;;;2.08;0.98;;;3.70;99.90;;;;;;5016742;28;20052;-72
2023/12/12 04:36:29;;;;;;;2.17;0.65;;;3.80;99.90;;;;;;5026813;28;20037;-72
2023/12/12 04:38:55;;;;;;;0.70;0.57;;;3.80;99.90;;;;;;5004901;28;20120;-73
2023/12/12 04:41:20;;;;;;;3.00;1.13;;;3.90;99.90;;;;;;5017458;28;20033;-73
2023/12/12 04:43:46;;;;;;;0.50;0.40;;;3.80;99.90;;;;;;5013177;28;20115;-73
2023/12/12 04:46:19;;;;;;;1.23;0.77;;;3.90;99.90;;;;;;5020136;28;20041;-73
2023/12/12 04:48:45;;;;;;;2.72;1.08;;;4.00;99.90;;;;;;5022935;28;20128;-73
2023/12/12 04:51:11;;;;;;;2.95;0.60;;;4.00;99.90;;;;;;5025545;28;20063;-72
2023/12/12 04:53:36;;;;;;;4.45;0.57;;;4.00;99.90;;;;;;5001974;28;20041;-73
2023/12/12 04:56:02;;;;;;;1.00;0.85;;;4.00;99.90;;;;;;5022590;28;20041;-73
2023/12/12 04:58:28;;;;;;;0.63;0.30;;;4.00;99.90;;;;;;5010676;28;20059;-72
2023/12/12 05:00:54;;;;;;;9.07;0.40;;;4.10;99.90;;;;;;5037859;28;20493;-72
2023/12/12 05:03:19;;;;;;;1.15;0.60;;;4.10;99.90;;;;;;5006868;28;20030;-72
2023/12/12 05:05:47;;;;;;;2.65;0.95;;;4.10;99.90;;;;;;5015311;28;20061;-72
2023/12/12 05:08:13;;;;;;;1.20;0.85;;;4.20;99.90;;;;;;5017449;28;20041;-72
2023/12/12 05:10:39;;;;;;;6.78;0.93;;;4.20;99.90;;;;;;5008266;28;20044;-72
2023/12/12 05:13:04;;;;;;;1.50;1.10;;;4.20;99.90;;;;;;5014840;28;20040;-73
2023/12/12 05:15:30;;;;;;;1.50;0.98;;;4.20;99.90;;;;;;5017716;28;20490;-72
2023/12/12 05:17:56;;;;;;;8.07;0.63;;;4.20;99.90;;;;;;5029535;28;20302;-73
2023/12/12 05:20:22;;;;;;;0.52;0.52;;;4.20;99.90;;;;;;5020042;28;20064;-73
2023/12/12 05:22:47;;;;;;;1.92;1.10;;;4.30;99.90;;;;;;5023663;28;20127;-73
2023/12/12 05:25:13;;;;;;;13.13;0.82;;;4.20;99.90;;;;;;5018758;28;20037;-73
2023/12/12 05:27:39;;;;;;;6.07;0.60;;;4.20;99.90;;;;;;5022906;28;20044;-72
2023/12/12 05:30:05;;;;;;;1.02;0.52;;;4.30;99.90;;;;;;5012663;28;20064;-72
2023/12/12 05:32:31;;;;;;;2.35;1.15;;;4.30;99.90;;;;;;5012451;28;20112;-72
2023/12/12 05:34:56;;;;;;;6.20;0.88;;;4.30;99.90;;;;;;5023625;28;20052;-72
2023/12/12 05:37:22;;;;;;;1.20;0.70;;;4.40;99.90;;;;;;5015835;28;20064;-72
2023/12/12 05:39:49;;;;;;;0.55;0.52;;;4.30;99.90;;;;;;5026739;28;20037;-72
2023/12/12 05:42:15;;;;;;;2.03;1.15;;;4.50;99.90;;;;;;5024354;28;20545;-72
2023/12/12 05:44:43;;;;;;;1.48;1.05;;;4.50;99.90;;;;;;5022722;28;20116;-72
2023/12/12 05:47:16;;;;;;;1.20;1.10;;;4.60;99.90;;;;;;5027223;28;20048;-72
2023/12/12 05:49:41;;;;;;;2.10;1.23;;;4.60;99.90;;;;;;5023918;28;20048;-72
2023/12/12 05:52:07;;;;;;;4.45;1.95;;;4.70;99.90;;;;;;5021850;28;20045;-72
2023/12/12 05:54:33;;;;;;;2.22;1.10;;;4.80;99.90;;;;;;5032724;28;20129;-72
2023/12/12 05:56:59;;;;;;;4.22;1.08;;;4.90;99.90;;;;;;5023038;28;20044;-72
2023/12/12 05:59:25;;;;;;;7.35;0.88;;;4.90;99.90;;;;;;5015044;28;20053;-72
2023/12/12 06:01:50;;;;;;;7.63;1.02;;;5.00;99.90;;;;;;5033330;28;20129;-72
2023/12/12 06:04:16;;;;;;;2.00;1.27;;;5.00;99.90;;;;;;5014412;28;20116;-72
2023/12/12 06:06:43;;;;;;;1.83;1.50;;;5.20;99.90;;;;;;5020528;28;20041;-72
2023/12/12 06:09:12;;;;;;;1.13;0.95;;;5.30;99.90;;;;;;5028196;28;20374;-72
2023/12/12 06:11:39;;;;;;;9.77;1.38;;;5.40;99.90;;;;;;5024480;28;20331;-72
2023/12/12 06:14:05;;;;;;;12.60;1.40;;;5.50;99.90;;;;;;5026496;28;20045;-72
2023/12/12 06:16:31;;;;;;;1.30;1.13;;;5.70;99.90;;;;;;5014909;28;20490;-73
2023/12/12 06:18:57;;;;;;;3.20;1.48;;;5.70;99.90;;;;;;5027183;28;20068;-72
2023/12/12 06:21:23;;;;;;;9.15;1.20;;;5.70;99.90;;;;;;5025747;28;20079;-72
2023/12/12 06:23:49;;;;;;;1.02;0.73;;;5.80;99.90;;;;;;5025806;28;20037;-72
2023/12/12 06:26:15;;;;;;;2.97;1.50;;;5.80;99.90;;;;;;5013466;28;20046;-72
2023/12/12 06:28:41;;;;;;;1.98;0.82;;;5.80;99.90;;;;;;5019208;28;20037;-72
2023/12/12 06:31:07;;;;;;;2.03;1.33;;;5.90;99.90;;;;;;5014507;28;20045;-72
2023/12/12 06:33:33;;;;;;;2.00;1.25;;;5.90;99.90;;;;;;5022466;28;20037;-71
2023/12/12 06:35:59;;;;;;;5.57;1.65;;;6.00;99.90;;;;;;5025008;28;20090;-72
2023/12/12 06:38:25;;;;;;;2.78;1.27;;;6.00;99.90;;;;;;5013571;28;20448;-72
2023/12/12 06:40:51;;;;;;;23.80;2.15;;;6.10;99.90;;;;;;5021678;28;20504;-72
2023/12/12 06:43:17;;;;;;;1.92;1.27;;;6.10;99.90;;;;;;5024077;28;20482;-72
2023/12/12 06:45:43;;;;;;;7.38;1.88;;;6.20;99.90;;;;;;5024877;28;20041;-72
2023/12/12 06:48:12;;;;;;;2.50;1.38;;;6.20;99.90;;;;;;5016170;28;20052;-72
2023/12/12 06:50:37;;;;;;;12.35;2.00;;;6.20;99.90;;;;;;5021437;28;20269;-72
2023/12/12 06:53:03;;;;;;;1.58;1.05;;;6.10;99.90;;;;;;5018534;28;20037;-72
2023/12/12 06:55:29;;;;;;;9.32;1.77;;;6.20;99.90;;;;;;5035219;28;20041;-72
2023/12/12 06:57:55;;;;;;;2.55;1.70;;;6.30;99.90;;;;;;5019548;28;20065;-72
2023/12/12 07:00:21;;;;;;;8.88;2.65;;;6.30;99.90;;;;;;5023524;28;20048;-72
2023/12/12 07:02:47;;;;;;;4.13;1.20;;;6.30;99.90;;;;;;5021869;28;20037;-72
2023/12/12 07:05:15;;;;;;;5.05;2.72;;;6.40;99.90;;;;;;5020201;28;20111;-72
2023/12/12 07:07:41;;;;;;;2.38;1.63;;;6.40;99.90;;;;;;5021094;28;20037;-72
2023/12/12 07:10:07;;;;;;;3.40;1.75;;;6.40;99.90;;;;;;5020504;28;20052;-72
2023/12/12 07:12:33;;;;;;;2.40;1.65;;;6.40;99.90;;;;;;5028328;28;20033;-72
2023/12/12 07:14:59;;;;;;;2.88;1.90;;;6.50;99.90;;;;;;5023008;28;20045;-72
2023/12/12 07:17:24;;;;;;;2.35;1.70;;;6.40;99.90;;;;;;5016923;28;20479;-72
2023/12/12 07:19:50;;;;;;;4.22;2.15;;;6.50;99.90;;;;;;5019600;28;20037;-73
2023/12/12 07:22:16;;;;;;;28.77;2.40;;;6.60;99.90;;;;;;5030459;28;20539;-72
2023/12/12 07:24:41;;;;;;;5.68;2.67;;;6.60;99.90;;;;;;5023936;28;20485;-73
2023/12/12 07:27:07;;;;;;;6.18;2.33;;;6.60;99.90;;;;;;5024651;28;20036;-72
2023/12/12 07:29:33;;;;;;;2.45;1.45;;;6.60;99.90;;;;;;5024820;28;20073;-72
2023/12/12 07:31:59;;;;;;;29.33;2.50;;;6.60;99.90;;;;;;5022691;28;20044;-72
2023/12/12 07:34:25;;;;;;;3.75;2.15;;;6.60;99.90;;;;;;5024341;28;20048;-71
2023/12/12 07:36:51;;;;;;;6.43;1.98;;;6.60;99.90;;;;;;5020655;28;20042;-72
2023/12/12 07:39:17;;;;;;;3.03;2.20;;;6.70;99.90;;;;;;5003786;28;20033;-73
2023/12/12 07:41:43;;;;;;;26.50;2.25;;;6.70;99.90;;;;;;5010587;28;20064;-72
2023/12/12 07:44:09;;;;;;;13.45;3.10;;;6.70;99.90;;;;;;5027248;28;20041;-72
2023/12/12 07:46:38;;;;;;;14.98;1.95;;;6.70;99.90;;;;;;5021535;28;20066;-73
2023/12/12 07:49:07;;;;;;;9.27;2.55;;;6.70;99.90;;;;;;5022768;28;20135;-72
2023/12/12 07:51:33;;;;;;;16.60;2.70;;;6.70;99.90;;;;;;5022551;28;20519;-73
2023/12/12 07:54:03;;;;;;;36.42;3.05;;;6.70;99.90;;;;;;5026803;28;20037;-73
2023/12/12 07:56:29;;;;;;;7.93;3.03;;;6.70;99.90;;;;;;5020027;28;20091;-73
2023/12/12 07:58:55;;;;;;;5.10;3.20;;;6.70;99.90;;;;;;5022119;28;20595;-73
2023/12/12 08:01:21;;;;;;;19.48;3.53;;;6.70;99.90;;;;;;5018766;28;20042;-73
2023/12/12 08:03:47;;;;;;;27.63;3.45;;;6.70;99.90;;;;;;5019892;28;20119;-73
2023/12/12 08:06:12;;;;;;;5.18;3.15;;;6.70;99.90;;;;;;5022027;28;20037;-73
2023/12/12 08:08:38;;;;;;;25.45;3.08;;;6.60;99.90;;;;;;5019561;28;20041;-73
2023/12/12 08:11:04;;;;;;;5.32;1.90;;;6.60;99.90;;;;;;5021912;28;20041;-73
2023/12/12 08:13:33;;;;;;;12.50;2.55;;;6.60;99.90;;;;;;5020132;28;20060;-73
2023/12/12 08:15:59;;;;;;;16.65;2.10;;;6.50;99.90;;;;;;5019086;28;20148;-73
2023/12/12 08:18:25;;;;;;;14.75;1.88;;;6.50;99.90;;;;;;5020015;28;20132;-73
2023/12/12 08:20:51;;;;;;;6.43;2.22;;;6.50;99.90;;;;;;5020303;28;20086;-73
2023/12/12 08:23:17;;;;;;;6.20;2.13;;;6.50;99.90;;;;;;5014225;28;20444;-73
2023/12/12 08:25:42;;;;;;;7.47;1.92;;;6.40;99.90;;;;;;5017221;28;20033;-73
2023/12/12 08:28:08;;;;;;;21.10;2.78;;;6.40;99.90;;;;;;5021983;28;20406;-73
2023/12/12 08:30:36;;;;;;;11.80;2.40;;;6.40;99.90;;;;;;5022023;28;20037;-73
2023/12/12 08:33:02;;;;;;;14.43;2.90;;;6.30;99.90;;;;;;5017650;28;20041;-73
2023/12/12 08:35:28;;;;;;;3.85;1.98;;;6.40;99.90;;;;;;5024333;28;20488;-73
2023/12/12 08:37:53;;;;;;;2.72;1.83;;;6.40;99.90;;;;;;5016550;28;20052;-73
2023/12/12 08:40:19;;;;;;;7.82;1.45;;;6.40;99.90;;;;;;5021912;28;20088;-76
2023/12/12 08:42:45;;;;;;;18.70;1.92;;;6.30;99.90;;;;;;5024868;28;20045;-73
2023/12/12 08:45:10;;;;;;;4.60;2.08;;;6.30;99.90;;;;;;5012120;28;20445;-72
2023/12/12 08:47:36;;;;;;;2.28;2.03;;;6.30;99.90;;;;;;5037672;28;20110;-72
2023/12/12 08:50:04;;;;;;;3.00;2.30;;;6.30;99.90;;;;;;5019822;28;20045;-72
2023/12/12 08:52:31;;;;;;;10.02;2.42;;;6.30;99.90;;;;;;5017768;28;20033;-72
2023/12/12 08:54:57;;;;;;;7.15;2.58;;;6.20;99.90;;;;;;5020713;28;20060;-72
2023/12/12 08:57:23;;;;;;;3.05;2.15;;;6.20;99.90;;;;;;5011085;28;20477;-72
2023/12/12 08:59:49;;;;;;;4.32;2.13;;;6.20;99.90;;;;;;5024899;28;20041;-72
2023/12/12 09:02:17;;;;;;;7.53;3.20;;;6.20;99.90;;;;;;5023130;28;20045;-73
2023/12/12 09:04:42;;;;;;;16.17;2.33;;;6.20;99.90;;;;;;5025689;28;20486;-73
2023/12/12 09:07:08;;;;;;;3.63;2.10;;;6.20;99.90;;;;;;5005111;28;20041;-73
2023/12/12 09:09:34;;;;;;;8.85;3.22;;;6.20;99.90;;;;;;5021203;28;20386;-73
2023/12/12 09:12:03;;;;;;;4.43;2.47;;;6.20;99.90;;;;;;5022815;28;20049;-72
2023/12/12 09:14:29;;;;;;;4.57;2.38;;;6.20;99.90;;;;;;5019206;28;20044;-72
2023/12/12 09:16:55;;;;;;;3.17;1.77;;;6.10;99.90;;;;;;5022866;28;20048;-73
2023/12/12 09:19:21;;;;;;;2.75;1.80;;;6.20;99.90;;;;;;5023536;28;20037;-73
2023/12/12 09:21:48;;;;;;;4.15;2.38;;;6.20;99.90;;;;;;5023738;28;20530;-72
2023/12/12 09:24:14;;;;;;;3.30;2.13;;;6.30;99.90;;;;;;5022680;28;20056;-72
2023/12/12 09:26:40;;;;;;;4.45;3.13;;;6.30;99.90;;;;;;5024444;28;20053;-72
2023/12/12 09:29:06;;;;;;;3.75;2.33;;;6.30;99.90;;;;;;5026545;28;20102;-73
2023/12/12 09:31:32;;;;;;;4.63;2.50;;;6.30;99.90;;;;;;5025691;28;20036;-72
2023/12/12 09:33:58;;;;;;;6.18;3.45;;;6.30;99.90;;;;;;5019667;28;20051;-72
2023/12/12 09:36:24;;;;;;;8.82;2.40;;;6.40;99.90;;;;;;5020591;28;20044;-72
2023/12/12 09:38:50;;;;;;;14.70;2.75;;;6.30;99.90;;;;;;5012622;28;20037;-72
2023/12/12 09:41:25;;;;;;;4.28;2.33;;;6.40;99.90;;;;;;5012576;28;20107;-72
2023/12/12 09:43:51;;;;;;;2.72;2.08;;;6.40;99.90;;;;;;5012653;28;20047;-73
2023/12/12 09:46:19;;;;;;;10.73;2.95;;;6.50;99.90;;;;;;5028556;28;20449;-73
2023/12/12 09:48:47;;;;;;;4.30;2.60;;;6.50;99.90;;;;;;5018963;28;20033;-73
2023/12/12 09:51:16;;;;;;;16.17;3.08;;;6.50;99.90;;;;;;5022516;28;20107;-73
2023/12/12 09:53:46;;;;;;;3.50;2.45;;;6.50;99.90;;;;;;5021084;28;20095;-73
2023/12/12 09:56:17;;;;;;;4.03;2.83;;;6.60;99.90;;;;;;5024845;28;20413;-73
2023/12/12 09:58:48;;;;;;;10.63;2.65;;;6.60;99.90;;;;;;5025455;28;20041;-73
2023/12/12 10:01:17;;;;;;;9.35;3.05;;;6.50;99.90;;;;;;5017370;28;20116;-72
2023/12/12 10:03:44;;;;;;;5.32;3.30;;;6.50;99.90;;;;;;5020221;28;20068;-72
2023/12/12 10:06:11;;;;;;;5.57;2.97;;;6.50;99.90;;;;;;5027483;28;20037;-72
2023/12/12 10:08:37;;;;;;;6.43;3.17;;;6.50;99.90;;;;;;5018261;28;20040;-73
2023/12/12 10:11:09;;;;;;;5.20;3.72;;;6.50;99.90;;;;;;5023307;28;20069;-73
2023/12/12 10:13:54;;;;;;;5.22;3.80;;;6.50;99.90;;;;;;5007173;28;20124;-72
2023/12/12 10:16:21;;;;;;;5.70;3.08;;;6.60;99.90;;;;;;5015763;28;20672;-73
2023/12/12 10:18:47;;;;;;;5.30;3.30;;;6.60;99.90;;;;;;5010335;28;20834;-72
2023/12/12 10:21:18;;;;;;;5.45;3.28;;;6.60;99.90;;;;;;5026719;28;20123;-72
2023/12/12 10:23:49;;;;;;;6.95;3.85;;;6.70;99.90;;;;;;5037264;28;20030;-72
2023/12/12 10:26:15;;;;;;;3.53;2.13;;;6.70;99.90;;;;;;5012443;28;20098;-72
2023/12/12 10:28:41;;;;;;;4.78;3.33;;;6.70;99.90;;;;;;5023445;28;20041;-72
2023/12/12 10:31:08;;;;;;;8.05;3.72;;;6.70;99.90;;;;;;5024269;28;20474;-72
2023/12/12 10:33:38;;;;;;;4.93;2.42;;;6.70;99.90;;;;;;5024510;28;20037;-72
2023/12/12 10:36:13;;;;;;;3.60;2.50;;;6.70;99.90;;;;;;5023820;28;20048;-72
2023/12/12 10:38:39;;;;;;;5.78;2.85;;;6.70;99.90;;;;;;5020649;28;20048;-72
2023/12/12 10:41:16;;;;;;;4.40;2.53;;;6.80;99.90;;;;;;5019729;28;20413;-72
2023/12/12 10:43:44;;;;;;;4.30;2.90;;;6.80;99.90;;;;;;5039709;28;20461;-72
2023/12/12 10:46:19;;;;;;;7.80;4.75;;;6.80;99.90;;;;;;5018584;28;20048;-72
2023/12/12 10:48:47;;;;;;;4.68;2.92;;;6.80;99.90;;;;;;5023220;28;20040;-72
2023/12/12 10:51:14;;;;;;;4.93;2.53;;;6.80;99.90;;;;;;5023336;28;20044;-72
2023/12/12 10:53:42;;;;;;;5.07;3.40;;;6.80;99.90;;;;;;5026080;28;20152;-72
2023/12/12 10:56:09;;;;;;;6.13;3.03;;;6.90;99.90;;;;;;5021436;28;20099;-72
2023/12/12 10:58:39;;;;;;;4.50;2.92;;;7.00;99.90;;;;;;5026121;28;20047;-72
2023/12/12 11:01:06;;;;;;;7.63;4.10;;;7.00;99.90;;;;;;5024098;28;20145;-72
2023/12/12 11:03:32;;;;;;;5.82;3.30;;;7.00;99.90;;;;;;5024647;28;20041;-72
2023/12/12 11:05:59;;;;;;;4.45;3.53;;;7.00;99.90;;;;;;5021318;28;20445;-72
2023/12/12 11:08:27;;;;;;;6.00;3.50;;;7.00;99.90;;;;;;5019197;28;20473;-72
2023/12/12 11:10:54;;;;;;;8.43;4.15;;;7.00;99.90;;;;;;5021010;28;20503;-72
2023/12/12 11:13:22;;;;;;;4.85;3.47;;;7.00;99.90;;;;;;5022866;28;20099;-72
2023/12/12 11:15:50;;;;;;;4.63;3.15;;;7.00;99.90;;;;;;5015967;28;20041;-72
2023/12/12 11:18:20;;;;;;;8.18;3.70;;;7.10;99.90;;;;;;5022098;28;20572;-72
2023/12/12 11:20:47;;;;;;;7.55;4.03;;;7.00;99.90;;;;;;5038556;28;20136;-72
2023/12/12 11:23:42;;;;;;;7.20;3.85;;;7.10;99.90;;;;;;5021404;28;20413;-72
2023/12/12 11:26:14;;;;;;;4.53;3.00;;;7.10;99.90;;;;;;5010770;28;20128;-72
2023/12/12 11:28:40;;;;;;;5.63;3.55;;;7.10;99.90;;;;;;5023726;28;20040;-72
2023/12/12 11:31:07;;;;;;;8.25;3.50;;;7.10;99.90;;;;;;5003028;28;20041;-72
2023/12/12 11:33:36;;;;;;;4.32;2.85;;;7.20;99.90;;;;;;5029698;28;20029;-72
2023/12/12 11:36:02;;;;;;;8.75;3.90;;;7.20;99.90;;;;;;5020436;28;20458;-73
2023/12/12 11:38:30;;;;;;;15.38;4.15;;;7.20;99.90;;;;;;5018722;28;20076;-72
2023/12/12 11:41:09;;;;;;;7.53;4.57;;;7.20;99.90;;;;;;5020104;28;20068;-72
2023/12/12 11:43:36;;;;;;;9.93;4.18;;;7.30;99.90;;;;;;5021640;28;20053;-72
2023/12/12 11:46:18;;;;;;;7.63;3.65;;;7.30;99.90;;;;;;5020351;28;20138;-72
2023/12/12 11:48:44;;;;;;;10.20;4.22;;;7.30;99.90;;;;;;5019313;28;20378;-72
2023/12/12 11:51:35;;;;;;;6.47;4.05;;;7.30;99.90;;;;;;5015776;28;20317;-72
2023/12/12 11:54:06;;;;;;;8.15;3.88;;;7.30;99.90;;;;;;5020158;28;20135;-73
2023/12/12 11:56:32;;;;;;;13.30;5.78;;;7.30;99.90;;;;;;5016694;28;20053;-73
2023/12/12 11:59:00;;;;;;;7.20;4.28;;;7.30;99.90;;;;;;5021126;28;20049;-72
2023/12/12 12:01:26;;;;;;;7.15;5.38;;;7.30;99.90;;;;;;5024898;28;20042;-73
2023/12/12 12:03:52;;;;;;;9.88;5.85;;;7.40;99.90;;;;;;5021513;28;20041;-72
2023/12/12 12:06:19;;;;;;;13.38;4.35;;;7.40;99.90;;;;;;5022776;28;20497;-73
2023/12/12 12:08:44;;;;;;;8.70;4.82;;;7.40;99.90;;;;;;5006619;28;20056;-73
2023/12/12 12:11:11;;;;;;;13.27;4.72;;;7.50;99.90;;;;;;5019745;28;20477;-73
2023/12/12 12:13:41;;;;;;;9.43;4.85;;;7.50;99.90;;;;;;5028560;28;20452;-73
2023/12/12 12:16:11;;;;;;;8.85;4.80;;;7.50;99.90;;;;;;5020719;28;20430;-72
2023/12/12 12:18:37;;;;;;;6.30;4.35;;;7.50;99.90;;;;;;5007426;28;20045;-73
2023/12/12 12:21:04;;;;;;;16.70;4.18;;;7.60;99.90;;;;;;5019600;28;20037;-72
2023/12/12 12:23:32;;;;;;;7.10;4.40;;;7.60;99.90;;;;;;5017583;28;20408;-73
2023/12/12 12:26:01;;;;;;;6.68;3.30;;;7.60;99.90;;;;;;5010232;28;20033;-73
2023/12/12 12:28:33;;;;;;;5.07;3.45;;;7.60;99.90;;;;;;5045432;28;20060;-73
2023/12/12 12:31:00;;;;;;;5.80;3.88;;;7.70;99.90;;;;;;5027370;28;20044;-73
2023/12/12 12:33:33;;;;;;;10.23;4.80;;;7.70;99.90;;;;;;5028542;28;20497;-72
2023/12/12 12:35:58;;;;;;;7.13;4.50;;;7.70;99.90;;;;;;5031350;28;20041;-73
2023/12/12 12:38:29;;;;;;;6.93;3.58;;;7.70;99.90;;;;;;5025151;28;20038;-72
2023/12/12 12:40:55;;;;;;;8.07;4.03;;;7.70;99.90;;;;;;5012509;28;20037;-72
2023/12/12 12:43:24;;;;;;;8.18;5.05;;;7.80;99.90;;;;;;5025668;28;20124;-72
2023/12/12 12:45:50;;;;;;;11.60;4.82;;;7.70;99.90;;;;;;5025925;28;20567;-72
2023/12/12 12:48:17;;;;;;;4.45;2.95;;;7.80;99.90;;;;;;5011675;28;20052;-73
2023/12/12 12:50:47;;;;;;;7.13;4.05;;;7.80;99.90;;;;;;5027852;28;20170;-72
2023/12/12 12:53:14;;;;;;;11.48;4.15;;;7.90;99.90;;;;;;5023953;28;20033;-72